Time;durP1;ratioP1;P1;durP2;ratioP2;P2;SDS_P1;SDS_P2;PMS_P1;PMS_P2;Temp;Humidity;BMP_temperature;BMP_pressure;BME280_temperature;BME280_humidity;BME280_pressure;Samples;Min_cycle;Max_cycle;Signal;HPM_P1;HPM_P2
2022/05/26 00:01:50;;;;;;;0.20;0.20;;;13.00;99.90;;;;;;5045174;28;20054;-69
2022/05/26 00:04:17;;;;;;;0.80;0.30;;;13.10;99.90;;;;;;5064375;28;20025;-68
2022/05/26 00:06:42;;;;;;;0.90;0.30;;;13.10;99.90;;;;;;5061722;28;20032;-69
2022/05/26 00:09:08;;;;;;;0.52;0.25;;;13.20;99.90;;;;;;5064633;28;20538;-68
2022/05/26 00:11:36;;;;;;;0.77;0.40;;;13.20;99.90;;;;;;5045147;28;20036;-69
2022/05/26 00:14:08;;;;;;;1.05;0.40;;;13.30;99.90;;;;;;5062843;28;20028;-69
2022/05/26 00:16:43;;;;;;;0.63;0.30;;;13.30;99.90;;;;;;5062715;28;20038;-68
2022/05/26 00:19:10;;;;;;;0.90;0.30;;;13.30;99.90;;;;;;5062920;28;20021;-68
2022/05/26 00:21:36;;;;;;;0.45;0.30;;;13.30;99.90;;;;;;5062710;28;20068;-68
2022/05/26 00:24:03;;;;;;;0.45;0.22;;;13.30;99.90;;;;;;5061442;28;20560;-68
2022/05/26 00:26:28;;;;;;;0.82;0.30;;;13.40;99.90;;;;;;5062847;28;20045;-69
2022/05/26 00:28:54;;;;;;;0.63;0.35;;;13.40;99.90;;;;;;5044614;28;20044;-69
2022/05/26 00:31:20;;;;;;;0.77;0.30;;;13.40;99.90;;;;;;5045513;28;20074;-68
2022/05/26 00:33:46;;;;;;;0.20;0.20;;;13.40;99.90;;;;;;5063765;28;20048;-68
2022/05/26 00:36:13;;;;;;;0.63;0.28;;;13.50;99.90;;;;;;5062574;28;20060;-68
2022/05/26 00:38:40;;;;;;;0.57;0.28;;;13.40;99.90;;;;;;5062450;28;20068;-68
2022/05/26 00:41:12;;;;;;;1.00;0.40;;;13.50;99.90;;;;;;5060928;28;20033;-68
2022/05/26 00:43:43;;;;;;;0.52;0.30;;;13.50;99.90;;;;;;5062616;28;20029;-68
2022/05/26 00:46:21;;;;;;;0.80;0.38;;;13.50;99.90;;;;;;5061429;28;20036;-68
2022/05/26 00:48:53;;;;;;;0.47;0.30;;;13.60;99.90;;;;;;5062581;28;20048;-68
2022/05/26 00:51:28;;;;;;;0.90;0.40;;;13.60;99.90;;;;;;5063546;28;20092;-68
2022/05/26 00:53:58;;;;;;;1.05;0.55;;;13.50;99.90;;;;;;5062240;28;20017;-68
2022/05/26 00:56:32;;;;;;;0.40;0.30;;;13.50;99.90;;;;;;5063782;28;20021;-68
2022/05/26 00:59:15;;;;;;;0.20;0.20;;;13.50;99.90;;;;;;5062323;28;20126;-68
2022/05/26 01:01:41;;;;;;;0.20;0.20;;;13.60;99.90;;;;;;5062273;28;20036;-68
2022/05/26 01:04:14;;;;;;;0.60;0.30;;;13.60;99.90;;;;;;5062725;28;20114;-68
2022/05/26 01:07:11;;;;;;;0.90;0.50;;;13.60;99.90;;;;;;5062158;28;20025;-68
2022/05/26 01:09:37;;;;;;;1.33;0.52;;;13.60;99.90;;;;;;5061663;28;20033;-68
2022/05/26 01:12:03;;;;;;;0.20;0.20;;;13.60;99.90;;;;;;5061355;28;20109;-68
2022/05/26 01:14:41;;;;;;;0.57;0.30;;;13.70;99.90;;;;;;5060552;28;20049;-68
2022/05/26 01:17:13;;;;;;;0.68;0.45;;;13.70;99.90;;;;;;5063121;28;20060;-68
2022/05/26 01:20:07;;;;;;;0.70;0.35;;;13.70;99.90;;;;;;5061557;28;20428;-68
2022/05/26 01:22:48;;;;;;;0.60;0.30;;;13.70;99.90;;;;;;5061464;28;20025;-68
2022/05/26 01:25:41;;;;;;;0.28;0.20;;;13.70;99.90;;;;;;5061463;28;20128;-68
2022/05/26 01:29:15;;;;;;;1.00;0.30;;;13.80;99.90;;;;;;5061060;28;20056;-68
2022/05/26 01:31:53;;;;;;;0.20;0.20;;;13.80;99.90;;;;;;4983626;28;20031;-68
2022/05/26 01:34:39;;;;;;;0.70;0.30;;;13.80;99.90;;;;;;5001127;28;20031;-68
2022/05/26 01:37:17;;;;;;;0.45;0.25;;;13.80;99.90;;;;;;5041808;28;20040;-68
2022/05/26 01:40:12;;;;;;;0.47;0.20;;;13.80;99.90;;;;;;5063008;28;20035;-67
2022/05/26 01:42:48;;;;;;;0.68;0.30;;;13.70;99.90;;;;;;5020723;28;20037;-68
2022/05/26 01:45:33;;;;;;;0.85;0.30;;;13.80;99.90;;;;;;5061174;28;20119;-68
2022/05/26 01:48:16;;;;;;;0.63;0.30;;;13.80;99.90;;;;;;5061508;28;20017;-68
2022/05/26 01:50:48;;;;;;;0.55;0.32;;;13.80;99.90;;;;;;5062183;28;20079;-67
2022/05/26 01:53:14;;;;;;;0.55;0.30;;;13.80;99.90;;;;;;5059756;28;20037;-68
2022/05/26 01:55:48;;;;;;;0.40;0.20;;;13.80;99.90;;;;;;5060946;28;20031;-68
2022/05/26 01:58:26;;;;;;;0.45;0.22;;;13.80;99.90;;;;;;5060442;28;20046;-68
2022/05/26 02:00:54;;;;;;;0.40;0.22;;;13.70;99.90;;;;;;5061099;28;20028;-68
2022/05/26 02:03:24;;;;;;;0.57;0.30;;;13.70;99.90;;;;;;5060069;28;20112;-67
2022/05/26 02:05:54;;;;;;;0.20;0.20;;;13.70;99.90;;;;;;5061064;28;20017;-69
2022/05/26 02:08:31;;;;;;;0.40;0.20;;;13.70;99.90;;;;;;5062047;28;20021;-68
2022/05/26 02:11:18;;;;;;;1.65;0.40;;;13.80;99.90;;;;;;5060733;28;20550;-68
2022/05/26 02:14:19;;;;;;;0.32;0.20;;;13.80;99.90;;;;;;5062401;28;20059;-67
2022/05/26 02:16:49;;;;;;;1.08;0.40;;;13.80;99.90;;;;;;5060018;28;20033;-68
2022/05/26 02:19:18;;;;;;;0.63;0.30;;;13.80;99.90;;;;;;5060873;28;20488;-68
2022/05/26 02:21:58;;;;;;;0.30;0.20;;;13.80;99.90;;;;;;5061069;28;20021;-68
2022/05/26 02:24:37;;;;;;;0.52;0.30;;;13.80;99.90;;;;;;5060871;28;20025;-67
2022/05/26 02:27:04;;;;;;;0.80;0.30;;;13.80;99.90;;;;;;5060191;28;20474;-67
2022/05/26 02:32:18;;;;;;;0.57;0.30;;;13.80;99.90;;;;;;5060966;28;20440;-68
2022/05/26 02:34:44;;;;;;;1.50;0.60;;;13.80;99.90;;;;;;5060589;28;20025;-68
2022/05/26 02:37:12;;;;;;;0.65;0.32;;;13.80;99.90;;;;;;5059341;28;20033;-68
2022/05/26 02:39:38;;;;;;;0.57;0.25;;;13.80;99.90;;;;;;5061760;28;20054;-68
2022/05/26 02:42:04;;;;;;;0.30;0.20;;;13.80;99.90;;;;;;5043500;28;20532;-68
2022/05/26 02:44:32;;;;;;;1.95;0.63;;;13.80;99.90;;;;;;5059401;28;20040;-68
2022/05/26 02:47:04;;;;;;;0.65;0.30;;;13.80;99.90;;;;;;5043726;28;20500;-68
2022/05/26 02:49:54;;;;;;;0.63;0.25;;;13.80;99.90;;;;;;5058896;28;20041;-68
2022/05/26 02:52:25;;;;;;;0.70;0.30;;;13.80;99.90;;;;;;5060515;28;20044;-68
2022/05/26 02:55:03;;;;;;;0.55;0.30;;;13.80;99.90;;;;;;5059828;28;20025;-68
2022/05/26 02:57:56;;;;;;;0.57;0.30;;;13.80;99.90;;;;;;5059151;28;20033;-68
2022/05/26 03:00:46;;;;;;;1.73;0.50;;;13.80;99.90;;;;;;5060254;28;20082;-68
2022/05/26 03:03:18;;;;;;;0.28;0.20;;;13.80;99.90;;;;;;5050087;28;20524;-68
2022/05/26 03:06:03;;;;;;;0.20;0.20;;;13.80;99.90;;;;;;5059382;28;20025;-67
2022/05/26 03:08:33;;;;;;;0.50;0.25;;;13.80;99.90;;;;;;5059761;28;20053;-68
2022/05/26 03:11:21;;;;;;;0.10;0.10;;;13.80;99.90;;;;;;5058728;28;20017;-68
2022/05/26 03:13:46;;;;;;;1.40;0.70;;;13.80;99.90;;;;;;5059817;28;20060;-67
2022/05/26 03:16:12;;;;;;;0.80;0.30;;;13.80;99.90;;;;;;5060688;28;20025;-67
2022/05/26 03:18:38;;;;;;;0.73;0.30;;;13.70;99.90;;;;;;5026207;28;20025;-68
2022/05/26 03:21:06;;;;;;;0.65;0.30;;;13.70;99.90;;;;;;5059891;28;20029;-68
2022/05/26 03:23:32;;;;;;;0.80;0.30;;;13.70;99.90;;;;;;5058736;28;20021;-68
2022/05/26 03:25:59;;;;;;;0.40;0.20;;;13.70;99.90;;;;;;5043305;28;20053;-68
2022/05/26 03:28:26;;;;;;;0.57;0.30;;;13.70;99.90;;;;;;5061654;28;20021;-68
2022/05/26 03:30:51;;;;;;;0.75;0.30;;;13.70;99.90;;;;;;5064245;28;20080;-68
2022/05/26 03:33:18;;;;;;;0.63;0.30;;;13.70;99.90;;;;;;5064677;28;20036;-68
2022/05/26 03:41:15;;;;;;;0.50;0.25;;;13.60;99.90;;;;;;5063126;28;20032;-67
2022/05/26 03:43:49;;;;;;;0.30;0.20;;;13.60;99.90;;;;;;5064051;28;20051;-68
2022/05/26 03:46:15;;;;;;;0.40;0.30;;;13.60;99.90;;;;;;5064602;28;20017;-68
2022/05/26 03:48:41;;;;;;;0.80;0.35;;;13.60;99.90;;;;;;5062530;28;20060;-68
2022/05/26 03:51:08;;;;;;;0.80;0.38;;;13.60;99.90;;;;;;5046848;28;20064;-68
2022/05/26 03:53:34;;;;;;;0.22;0.20;;;13.60;99.90;;;;;;5062312;28;20032;-67
2022/05/26 03:56:01;;;;;;;0.77;0.45;;;13.60;99.90;;;;;;5063649;28;20035;-67
2022/05/26 03:58:27;;;;;;;0.57;0.25;;;13.60;99.90;;;;;;5061949;28;20029;-68
2022/05/26 04:00:52;;;;;;;1.15;0.40;;;13.60;99.90;;;;;;5065023;28;20025;-68
2022/05/26 04:03:18;;;;;;;0.50;0.30;;;13.60;99.90;;;;;;5062826;28;20053;-67
2022/05/26 04:05:44;;;;;;;0.63;0.30;;;13.60;99.90;;;;;;5062655;28;20088;-68
2022/05/26 04:08:11;;;;;;;0.32;0.20;;;13.60;99.90;;;;;;5064616;28;20029;-68
2022/05/26 04:10:37;;;;;;;0.52;0.25;;;13.50;99.90;;;;;;5045619;28;20107;-68
2022/05/26 04:13:03;;;;;;;0.65;0.30;;;13.50;99.90;;;;;;5064550;28;20048;-68
2022/05/26 04:15:29;;;;;;;0.55;0.28;;;13.50;99.90;;;;;;5061951;28;20032;-68
2022/05/26 04:17:55;;;;;;;0.63;0.30;;;13.50;99.90;;;;;;5064800;28;20032;-68
2022/05/26 04:20:22;;;;;;;0.20;0.20;;;13.50;99.90;;;;;;5063697;28;20029;-68
2022/05/26 04:22:48;;;;;;;0.50;0.20;;;13.50;99.90;;;;;;5045922;28;20022;-68
2022/05/26 04:25:14;;;;;;;0.45;0.20;;;13.50;99.90;;;;;;5064503;28;20035;-68
2022/05/26 04:27:40;;;;;;;0.68;0.28;;;13.50;99.90;;;;;;5062997;28;20033;-68
2022/05/26 04:30:09;;;;;;;0.25;0.20;;;13.50;99.90;;;;;;5063840;28;20078;-68
2022/05/26 04:32:35;;;;;;;0.68;0.22;;;13.50;99.90;;;;;;5062868;28;20099;-68
2022/05/26 04:35:02;;;;;;;0.50;0.22;;;13.50;99.90;;;;;;5046561;28;20029;-67
2022/05/26 04:37:28;;;;;;;0.22;0.20;;;13.50;99.90;;;;;;5062215;28;20029;-67
2022/05/26 04:39:55;;;;;;;0.70;0.40;;;13.60;99.90;;;;;;5061002;28;20048;-67
2022/05/26 04:42:22;;;;;;;0.40;0.22;;;13.50;99.90;;;;;;5062516;28;20017;-67
2022/05/26 04:44:48;;;;;;;0.60;0.30;;;13.60;99.90;;;;;;5062852;28;20498;-67
2022/05/26 04:47:14;;;;;;;0.20;0.20;;;13.60;99.90;;;;;;5046169;28;20120;-68
2022/05/26 04:49:41;;;;;;;0.38;0.20;;;13.50;99.90;;;;;;5061206;28;20041;-67
2022/05/26 04:52:13;;;;;;;0.40;0.20;;;13.50;99.90;;;;;;5046256;28;20052;-67
2022/05/26 04:54:39;;;;;;;0.45;0.20;;;13.50;99.90;;;;;;5061748;28;20036;-67
2022/05/26 04:57:06;;;;;;;0.43;0.20;;;13.40;99.90;;;;;;5063093;28;20021;-67
2022/05/26 04:59:33;;;;;;;0.38;0.20;;;13.40;99.90;;;;;;5061943;28;20013;-67
2022/05/26 05:01:58;;;;;;;0.38;0.20;;;13.40;99.90;;;;;;5062335;28;20021;-67
2022/05/26 05:04:28;;;;;;;0.93;0.32;;;13.40;99.90;;;;;;5062563;28;20040;-67
2022/05/26 05:06:55;;;;;;;0.57;0.28;;;13.40;99.90;;;;;;5062158;28;20025;-67
2022/05/26 05:09:24;;;;;;;0.28;0.20;;;13.30;99.90;;;;;;5045814;28;20037;-67
2022/05/26 05:11:50;;;;;;;0.65;0.30;;;13.30;99.90;;;;;;5062633;28;20083;-67
2022/05/26 05:14:16;;;;;;;0.30;0.20;;;13.40;99.90;;;;;;5044514;28;20033;-67
2022/05/26 05:16:43;;;;;;;0.20;0.20;;;13.40;99.90;;;;;;5061782;28;20017;-68
2022/05/26 05:19:10;;;;;;;0.20;0.20;;;13.40;99.90;;;;;;5060644;28;20048;-67
2022/05/26 05:21:50;;;;;;;0.47;0.25;;;13.50;99.90;;;;;;5063453;28;20021;-67
2022/05/26 05:24:30;;;;;;;0.55;0.25;;;13.60;99.90;;;;;;5062128;28;20024;-67
2022/05/26 05:27:02;;;;;;;0.20;0.20;;;13.60;99.90;;;;;;5061261;28;20048;-68
2022/05/26 05:29:33;;;;;;;0.38;0.20;;;13.80;99.90;;;;;;5061103;28;20021;-67
2022/05/26 05:32:06;;;;;;;0.75;0.43;;;13.80;99.90;;;;;;5061670;28;20028;-67
2022/05/26 05:34:40;;;;;;;0.73;0.30;;;13.90;99.90;;;;;;5063090;28;20500;-67
2022/05/26 05:37:05;;;;;;;0.13;0.13;;;14.00;99.90;;;;;;5060367;28;20021;-68
2022/05/26 05:39:31;;;;;;;0.28;0.20;;;14.20;99.90;;;;;;5061581;28;20032;-68
2022/05/26 05:41:58;;;;;;;0.47;0.28;;;14.30;99.90;;;;;;5044680;28;20041;-67
2022/05/26 05:44:25;;;;;;;0.30;0.20;;;14.40;99.90;;;;;;5060440;28;20025;-68
2022/05/26 05:46:53;;;;;;;0.30;0.20;;;14.60;99.90;;;;;;5061250;28;20032;-68
2022/05/26 05:49:26;;;;;;;0.40;0.20;;;14.70;99.90;;;;;;5061453;28;20037;-68
2022/05/26 05:51:53;;;;;;;0.32;0.20;;;15.00;99.90;;;;;;5062974;28;20021;-68
2022/05/26 05:54:19;;;;;;;0.52;0.20;;;15.00;99.90;;;;;;5061740;28;20048;-67
2022/05/26 05:56:46;;;;;;;0.77;0.30;;;15.20;99.90;;;;;;5044495;28;20493;-68
2022/05/26 05:59:12;;;;;;;0.10;0.10;;;15.40;99.90;;;;;;5062033;28;20143;-68
2022/05/26 06:01:38;;;;;;;2.05;0.45;;;15.50;99.90;;;;;;5061328;28;20029;-68
2022/05/26 06:04:04;;;;;;;0.52;0.20;;;15.40;99.90;;;;;;5062756;28;20044;-68
2022/05/26 06:06:43;;;;;;;0.77;0.30;;;15.30;99.90;;;;;;5061068;28;20025;-68
2022/05/26 06:09:13;;;;;;;0.60;0.20;;;15.30;99.90;;;;;;5061168;28;20052;-68
2022/05/26 06:11:42;;;;;;;0.38;0.20;;;15.50;99.90;;;;;;5059978;28;20043;-68
2022/05/26 06:14:08;;;;;;;0.65;0.20;;;15.80;99.90;;;;;;5063002;28;20029;-68
2022/05/26 06:16:34;;;;;;;0.30;0.10;;;15.80;99.90;;;;;;5062969;28;20040;-68
2022/05/26 06:19:00;;;;;;;0.55;0.20;;;16.10;99.90;;;;;;5062951;28;20032;-68
2022/05/26 06:21:26;;;;;;;0.10;0.10;;;16.20;99.90;;;;;;5062826;28;20052;-68
2022/05/26 06:23:56;;;;;;;0.57;0.20;;;16.30;99.90;;;;;;5062891;28;20021;-68
2022/05/26 06:26:23;;;;;;;0.38;0.15;;;16.60;99.90;;;;;;5062462;28;20033;-68
2022/05/26 06:31:33;;;;;;;0.38;0.13;;;17.30;99.90;;;;;;5061124;28;20132;-69
2022/05/26 06:39:28;;;;;;;0.52;0.20;;;18.30;99.90;;;;;;5061934;28;20048;-68
2022/05/26 06:42:05;;;;;;;0.40;0.15;;;18.50;99.90;;;;;;5059709;28;20025;-68
2022/05/26 06:44:32;;;;;;;0.17;0.10;;;18.70;99.90;;;;;;5029247;28;20032;-70
2022/05/26 06:46:58;;;;;;;0.10;0.10;;;18.20;99.90;;;;;;5043180;28;20025;-69
2022/05/26 06:49:24;;;;;;;0.17;0.10;;;18.10;99.90;;;;;;5060098;28;20093;-69
2022/05/26 06:51:49;;;;;;;0.32;0.10;;;17.70;99.90;;;;;;5043906;28;20064;-69
2022/05/26 06:54:15;;;;;;;0.15;0.10;;;17.60;99.90;;;;;;5042381;28;20035;-69
2022/05/26 06:56:40;;;;;;;0.50;0.20;;;17.30;99.90;;;;;;5059927;28;20025;-69
2022/05/26 06:59:06;;;;;;;0.50;0.17;;;17.40;99.90;;;;;;5060617;28;20032;-69
2022/05/26 07:01:32;;;;;;;0.30;0.20;;;17.40;99.90;;;;;;5058965;28;20029;-69
2022/05/26 07:03:58;;;;;;;0.10;0.10;;;17.80;99.90;;;;;;5059540;28;20072;-69
2022/05/26 07:06:26;;;;;;;0.30;0.10;;;18.10;99.90;;;;;;5060123;28;20029;-69
2022/05/26 07:08:53;;;;;;;0.60;0.20;;;18.00;99.90;;;;;;5060099;28;20388;-69
2022/05/26 07:11:19;;;;;;;0.63;0.20;;;18.10;99.90;;;;;;5059950;28;20029;-69
2022/05/26 07:13:46;;;;;;;0.57;0.15;;;17.90;99.90;;;;;;5061216;28;20076;-69
2022/05/26 07:16:12;;;;;;;0.28;0.10;;;17.70;99.90;;;;;;5059500;28;20025;-68
2022/05/26 07:18:40;;;;;;;0.17;0.10;;;17.70;99.90;;;;;;5060037;28;20466;-68
2022/05/26 07:21:09;;;;;;;0.38;0.20;;;17.80;99.90;;;;;;5059700;28;20017;-69
2022/05/26 07:23:35;;;;;;;0.40;0.10;;;18.00;99.90;;;;;;5058268;28;20500;-69
2022/05/26 07:26:13;;;;;;;0.10;0.10;;;17.90;99.90;;;;;;5061542;28;20025;-69
2022/05/26 07:28:42;;;;;;;0.30;0.10;;;18.00;99.90;;;;;;5059562;28;20025;-69
2022/05/26 07:31:09;;;;;;;0.60;0.20;;;18.40;99.90;;;;;;5060675;28;20021;-69
2022/05/26 07:33:35;;;;;;;0.47;0.20;;;18.50;99.90;;;;;;5059661;28;20060;-69
2022/05/26 07:36:01;;;;;;;0.17;0.10;;;18.60;99.90;;;;;;5059810;28;20029;-69
2022/05/26 07:41:19;;;;;;;0.70;0.20;;;18.60;99.90;;;;;;5044972;28;20036;-69
2022/05/26 07:43:52;;;;;;;0.60;0.17;;;18.50;99.90;;;;;;5061028;28;20032;-69
2022/05/26 07:46:18;;;;;;;0.98;0.28;;;18.60;99.90;;;;;;5060801;28;20028;-69
2022/05/26 07:48:44;;;;;;;0.20;0.10;;;18.80;99.90;;;;;;5025334;28;20044;-69
2022/05/26 07:51:10;;;;;;;0.40;0.20;;;19.00;99.90;;;;;;5060961;28;20029;-69
2022/05/26 07:53:35;;;;;;;0.35;0.10;;;18.90;99.90;;;;;;5041746;28;20039;-69
2022/05/26 07:56:02;;;;;;;0.17;0.10;;;19.20;99.90;;;;;;5059766;28;20045;-69
2022/05/26 07:58:28;;;;;;;0.35;0.10;;;19.30;99.90;;;;;;5041573;28;20025;-69
2022/05/26 08:00:54;;;;;;;0.10;0.10;;;19.60;99.90;;;;;;5042978;28;20021;-69
2022/05/26 08:03:20;;;;;;;3.40;0.52;;;19.40;99.90;;;;;;5060342;28;20025;-69
2022/05/26 08:05:46;;;;;;;0.17;0.10;;;19.40;99.90;;;;;;5059732;28;20029;-69
2022/05/26 08:08:12;;;;;;;0.17;0.10;;;19.50;99.90;;;;;;5060754;28;20074;-69
2022/05/26 08:10:39;;;;;;;0.28;0.10;;;20.00;99.90;;;;;;5057997;28;20041;-69
2022/05/26 08:13:06;;;;;;;0.17;0.10;;;19.90;99.90;;;;;;5042741;28;20076;-69
2022/05/26 08:15:32;;;;;;;0.25;0.10;;;20.20;99.90;;;;;;5060200;28;20079;-69
2022/05/26 08:17:58;;;;;;;0.98;0.55;;;20.40;99.90;;;;;;5062816;28;20017;-69
2022/05/26 08:20:25;;;;;;;0.43;0.17;;;20.60;99.90;;;;;;5062506;28;20033;-69
2022/05/26 08:22:50;;;;;;;0.47;0.10;;;20.60;99.90;;;;;;5063394;28;20108;-70
2022/05/26 08:25:16;;;;;;;0.60;0.32;;;21.00;99.90;;;;;;5046206;28;20021;-69
2022/05/26 08:27:42;;;;;;;0.10;0.10;;;21.10;99.90;;;;;;5045050;28;20079;-69
2022/05/26 08:30:08;;;;;;;0.10;0.10;;;21.30;99.90;;;;;;5062731;28;20366;-69
2022/05/26 08:32:34;;;;;;;0.22;0.10;;;21.20;99.90;;;;;;5062758;28;20056;-69
2022/05/26 08:35:05;;;;;;;0.00;0.00;;;21.00;99.90;;;;;;5064568;28;20021;-69
2022/05/26 08:37:31;;;;;;;0.28;0.10;;;21.40;99.90;;;;;;5063491;28;20060;-69
2022/05/26 08:39:56;;;;;;;0.08;0.08;;;21.20;99.90;;;;;;5063165;28;20041;-69
2022/05/26 08:42:27;;;;;;;0.17;0.10;;;21.30;99.90;;;;;;5046070;28;20036;-69
2022/05/26 08:44:55;;;;;;;;;;;21.00;91.40;;;;;;5061749;28;20028;-69
2022/05/26 08:47:25;;;;;;;0.10;0.10;;;21.20;93.20;;;;;;5064040;28;19982;-69
2022/05/26 08:50:00;;;;;;;0.32;0.22;;;21.50;99.90;;;;;;5062497;28;20089;-69
2022/05/26 08:52:34;;;;;;;0.17;0.10;;;21.50;98.90;;;;;;5062154;28;20660;-69
2022/05/26 08:55:08;;;;;;;0.13;0.10;;;21.90;96.40;;;;;;5063745;28;20021;-69
2022/05/26 08:58:01;;;;;;;0.28;0.10;;;21.90;78.10;;;;;;5062468;28;20044;-69
2022/05/26 09:00:28;;;;;;;0.50;0.30;;;22.20;79.40;;;;;;5055958;28;20033;-69
2022/05/26 09:02:59;;;;;;;0.40;0.40;;;23.00;99.90;;;;;;5062545;28;20025;-69
2022/05/26 09:05:30;;;;;;;0.20;0.10;;;22.50;87.10;;;;;;5063087;28;20013;-69
2022/05/26 09:14:06;;;;;;;0.10;0.10;;;22.00;72.40;;;;;;5062445;28;20116;-69
2022/05/26 09:16:40;;;;;;;0.10;0.10;;;21.20;73.50;;;;;;5061810;28;20029;-69
2022/05/26 09:19:16;;;;;;;0.17;0.10;;;21.40;93.10;;;;;;5060473;28;20024;-69
2022/05/26 09:21:43;;;;;;;0.38;0.20;;;21.40;92.60;;;;;;5062065;28;20046;-69
2022/05/26 09:24:33;;;;;;;0.17;0.10;;;21.70;95.80;;;;;;5044267;28;20021;-69
2022/05/26 09:27:07;;;;;;;0.30;0.10;;;21.90;86.80;;;;;;5061945;28;20025;-69
2022/05/26 09:29:37;;;;;;;0.10;0.10;;;21.50;97.50;;;;;;5060983;28;20093;-69
2022/05/26 09:32:04;;;;;;;0.10;0.10;;;21.40;83.70;;;;;;5061740;28;20017;-68
2022/05/26 09:34:33;;;;;;;0.10;0.10;;;21.30;94.60;;;;;;5063032;28;20485;-68
2022/05/26 09:37:01;;;;;;;0.55;0.20;;;21.80;99.90;;;;;;5061728;28;20087;-68
2022/05/26 09:39:34;;;;;;;0.38;0.20;;;22.10;85.60;;;;;;5062845;28;20029;-68
2022/05/26 09:42:02;;;;;;;0.57;0.20;;;22.50;80.70;;;;;;5062610;28;20028;-68
2022/05/26 09:44:34;;;;;;;0.38;0.10;;;22.80;70.50;;;;;;5061586;28;20051;-68
2022/05/26 09:47:19;;;;;;;0.17;0.10;;;23.20;71.10;;;;;;5061330;28;20538;-68
2022/05/26 09:49:50;;;;;;;0.10;0.10;;;22.80;62.20;;;;;;5061411;28;20112;-69
2022/05/26 09:52:25;;;;;;;0.20;0.10;;;22.70;61.40;;;;;;5061296;28;20025;-68
2022/05/26 09:55:05;;;;;;;0.10;0.10;;;22.60;61.80;;;;;;5060989;28;20021;-69
2022/05/26 09:57:31;;;;;;;0.10;0.10;;;22.70;61.50;;;;;;5061341;28;20029;-68
2022/05/26 09:59:57;;;;;;;0.10;0.10;;;22.20;59.60;;;;;;5060766;28;20096;-68
2022/05/26 10:02:39;;;;;;;0.10;0.10;;;22.60;61.70;;;;;;5059822;28;20035;-68
2022/05/26 10:05:18;;;;;;;0.10;0.10;;;22.70;60.90;;;;;;5062381;28;20025;-68
2022/05/26 10:07:46;;;;;;;0.17;0.10;;;22.20;66.50;;;;;;5062304;28;20485;-68
2022/05/26 10:10:29;;;;;;;0.10;0.10;;;21.60;67.30;;;;;;5060992;28;20043;-69
2022/05/26 10:13:21;;;;;;;0.10;0.10;;;21.40;71.10;;;;;;5062151;28;20053;-68
2022/05/26 10:16:09;;;;;;;;;;;20.80;81.20;;;;;;5060400;28;20116;-68
2022/05/26 10:18:57;;;;;;;0.10;0.10;;;20.80;90.90;;;;;;5057983;28;20008;-68
2022/05/26 10:21:41;;;;;;;0.15;0.10;;;20.60;99.10;;;;;;5060749;28;20041;-69
2022/05/26 10:24:25;;;;;;;0.22;0.10;;;20.20;93.70;;;;;;5060846;28;20039;-68
2022/05/26 10:27:34;;;;;;;0.17;0.10;;;20.30;99.90;;;;;;5060110;28;20163;-68
2022/05/26 10:30:38;;;;;;;0.10;0.10;;;21.10;99.90;;;;;;5059374;28;20041;-68
2022/05/26 10:33:42;;;;;;;0.10;0.10;;;21.40;93.50;;;;;;5061260;28;20017;-69
2022/05/26 10:36:14;;;;;;;0.17;0.10;;;20.90;97.90;;;;;;5010084;28;20063;-68
2022/05/26 10:38:55;;;;;;;0.17;0.10;;;20.80;99.90;;;;;;5061177;28;20025;-68
2022/05/26 10:41:31;;;;;;;0.10;0.10;;;20.80;97.60;;;;;;5060864;28;20055;-68
2022/05/26 10:44:14;;;;;;;0.17;0.17;;;20.80;99.90;;;;;;5061259;28;20040;-69
2022/05/26 10:46:48;;;;;;;0.10;0.10;;;20.10;99.90;;;;;;5059985;28;20037;-68
2022/05/26 10:49:41;;;;;;;0.10;0.10;;;20.00;99.90;;;;;;5059067;28;20064;-68
2022/05/26 10:52:21;;;;;;;0.20;0.10;;;19.60;99.90;;;;;;5061432;28;20050;-66
2022/05/26 10:55:02;;;;;;;0.00;0.00;;;19.40;99.90;;;;;;5059814;28;20399;-66
2022/05/26 10:58:02;;;;;;;0.40;0.10;;;19.10;99.90;;;;;;5060193;28;20028;-66
2022/05/26 11:00:30;;;;;;;0.03;0.03;;;19.00;99.90;;;;;;5055751;28;20039;-65
2022/05/26 11:03:19;;;;;;;1.20;0.32;;;19.50;99.90;;;;;;5060474;28;20081;-65
2022/05/26 11:05:46;;;;;;;0.10;0.10;;;20.30;99.90;;;;;;5060383;28;20021;-65
2022/05/26 11:08:25;;;;;;;0.45;0.30;;;20.30;99.90;;;;;;5061233;28;20126;-65
2022/05/26 11:11:06;;;;;;;0.10;0.10;;;20.30;99.90;;;;;;5059742;28;20071;-65
2022/05/26 11:13:47;;;;;;;0.10;0.10;;;20.90;99.90;;;;;;5059824;28;20041;-65
2022/05/26 11:19:37;;;;;;;0.10;0.10;;;21.10;99.90;;;;;;5059912;28;21022;-65
2022/05/26 11:22:04;;;;;;;0.10;0.10;;;20.90;99.90;;;;;;5061207;28;20025;-64
2022/05/26 11:24:30;;;;;;;0.10;0.10;;;20.60;99.90;;;;;;5060367;28;20032;-64
2022/05/26 11:27:09;;;;;;;0.10;0.10;;;20.20;99.90;;;;;;5060412;28;20021;-64
2022/05/26 11:29:40;;;;;;;0.65;0.60;;;20.60;99.90;;;;;;5060354;28;20040;-65
2022/05/26 11:38:00;;;;;;;0.10;0.10;;;20.00;99.90;;;;;;5060928;28;20120;-65
2022/05/26 11:40:30;;;;;;;0.65;0.35;;;19.60;99.90;;;;;;5059678;28;20440;-65
2022/05/26 11:42:58;;;;;;;0.20;0.20;;;19.70;99.90;;;;;;5059875;28;20082;-65
2022/05/26 11:45:34;;;;;;;0.15;0.15;;;20.20;99.90;;;;;;5058111;28;20029;-65
2022/05/26 11:48:02;;;;;;;0.28;0.10;;;20.30;99.90;;;;;;5059276;28;20021;-64
2022/05/26 11:51:04;;;;;;;0.55;0.20;;;20.20;99.90;;;;;;5064506;28;20041;-65
2022/05/26 11:53:29;;;;;;;;;;;20.10;99.90;;;;;;5060066;28;20107;-64
2022/05/26 11:56:04;;;;;;;3.30;0.68;;;20.10;99.90;;;;;;5065051;28;19912;-64
2022/05/26 11:58:41;;;;;;;0.15;0.10;;;20.40;99.90;;;;;;5063399;28;20025;-65
2022/05/26 12:01:15;;;;;;;0.30;0.20;;;21.20;99.90;;;;;;5062446;28;20029;-65
2022/05/26 12:03:53;;;;;;;0.17;0.10;;;21.20;99.90;;;;;;5064407;28;20491;-65
2022/05/26 12:06:51;;;;;;;0.35;0.10;;;21.30;99.90;;;;;;5063308;28;20032;-66
2022/05/26 12:09:38;;;;;;;0.65;0.30;;;21.60;99.50;;;;;;5064527;28;20075;-65
2022/05/26 12:12:08;;;;;;;0.17;0.10;;;21.30;92.40;;;;;;5062897;28;20056;-65
2022/05/26 12:14:47;;;;;;;0.25;0.10;;;21.10;98.50;;;;;;5063142;28;20037;-65
2022/05/26 12:17:28;;;;;;;0.10;0.10;;;21.40;99.00;;;;;;5063224;28;20098;-65
2022/05/26 12:19:54;;;;;;;0.32;0.22;;;21.40;94.50;;;;;;5061965;28;20033;-65
2022/05/26 12:22:32;;;;;;;0.10;0.10;;;21.60;92.30;;;;;;5063996;28;20029;-64
2022/05/26 12:25:14;;;;;;;0.10;0.10;;;21.80;95.30;;;;;;5064277;28;20036;-64
2022/05/26 12:27:53;;;;;;;0.17;0.10;;;21.80;96.30;;;;;;5063003;28;20040;-64
2022/05/26 12:30:44;;;;;;;0.10;0.10;;;22.00;86.90;;;;;;5064026;28;20076;-64
2022/05/26 12:33:21;;;;;;;0.10;0.10;;;22.10;94.80;;;;;;5063782;28;20040;-65
2022/05/26 12:36:09;;;;;;;0.20;0.10;;;22.10;95.80;;;;;;5061412;28;20070;-65
2022/05/26 12:38:50;;;;;;;0.10;0.10;;;21.80;87.70;;;;;;5062656;28;20422;-65
2022/05/26 12:41:43;;;;;;;0.20;0.10;;;21.70;92.60;;;;;;5062979;28;20154;-65
2022/05/26 12:44:47;;;;;;;0.10;0.10;;;21.00;93.00;;;;;;5063035;28;20029;-65
2022/05/26 12:47:16;;;;;;;0.10;0.10;;;20.90;94.10;;;;;;5064192;28;20025;-65
2022/05/26 12:50:06;;;;;;;0.17;0.10;;;21.20;97.20;;;;;;5062468;28;20063;-65
2022/05/26 12:52:34;;;;;;;0.10;0.10;;;21.10;98.70;;;;;;5063150;28;20021;-65
2022/05/26 12:55:19;;;;;;;0.38;0.10;;;20.80;96.20;;;;;;5063487;28;20082;-66
2022/05/26 12:58:06;;;;;;;0.10;0.10;;;21.40;99.90;;;;;;5060741;28;20096;-65
2022/05/26 13:00:37;;;;;;;0.10;0.10;;;21.60;92.80;;;;;;5061157;28;20369;-66
2022/05/26 13:03:14;;;;;;;0.28;0.10;;;21.30;90.90;;;;;;5061344;28;20036;-65
2022/05/26 13:05:46;;;;;;;0.20;0.20;;;21.50;95.50;;;;;;5062453;28;20029;-65
2022/05/26 13:08:22;;;;;;;0.55;0.40;;;21.70;91.40;;;;;;5063343;28;20029;-65
2022/05/26 13:10:53;;;;;;;0.20;0.10;;;21.70;74.10;;;;;;5061838;28;20064;-66
2022/05/26 13:13:24;;;;;;;0.17;0.10;;;21.70;92.70;;;;;;5063468;28;20131;-65
2022/05/26 13:15:50;;;;;;;0.10;0.10;;;22.00;96.10;;;;;;5062636;28;20035;-66
2022/05/26 13:18:22;;;;;;;0.08;0.08;;;21.80;78.10;;;;;;5044485;28;20108;-65
2022/05/26 13:20:48;;;;;;;0.20;0.10;;;21.90;85.30;;;;;;5061951;28;20095;-65
2022/05/26 13:23:27;;;;;;;0.75;0.57;;;21.50;75.70;;;;;;5061835;28;20021;-65
2022/05/26 13:25:54;;;;;;;0.13;0.10;;;21.50;77.50;;;;;;5063322;28;20021;-65
2022/05/26 13:28:27;;;;;;;0.88;0.30;;;21.60;90.10;;;;;;5060674;28;20024;-65
2022/05/26 13:33:49;;;;;;;0.17;0.10;;;21.50;89.90;;;;;;5063276;28;20059;-65
2022/05/26 13:36:31;;;;;;;0.17;0.10;;;21.00;96.70;;;;;;5060175;28;20121;-65
2022/05/26 13:39:04;;;;;;;0.10;0.10;;;21.20;99.20;;;;;;5061728;28;20051;-65
2022/05/26 13:41:30;;;;;;;0.10;0.10;;;21.20;98.20;;;;;;5060494;28;20021;-66
2022/05/26 13:44:00;;;;;;;0.10;0.10;;;21.00;99.90;;;;;;5062210;28;20029;-65
2022/05/26 13:46:32;;;;;;;0.28;0.20;;;20.80;99.90;;;;;;5061257;28;20021;-65
2022/05/26 13:49:26;;;;;;;0.10;0.10;;;20.70;99.90;;;;;;5061315;28;20120;-65
2022/05/26 13:51:53;;;;;;;0.10;0.10;;;20.50;99.90;;;;;;5061400;28;20088;-65
2022/05/26 13:54:48;;;;;;;0.10;0.10;;;20.70;99.90;;;;;;5043578;28;20028;-65